Etusivu
METAR-TAF:

METAR-TAF

Lentoasemat :

Odessan kansainvälinen lentoasema

Odessa, Ukraina

Leveyspiiri: 46-26N, Pituuspiiri: 030-46E, korkeus merenpinnasta: 42 m

Tämänhetkinen sää

Tämä raportti tehtiin 24 minuuttia sitten, kello 11.30 UTC
Tuuli 8 kn etelästä, vaihdellen etelän/kaakon ja etelän/lounaan välillä
Lämpötila 7°C
Kosteus 31%
Ilmanpaine 1021 hPa
Näkyvyys 10 km tai enemmän
ei pilviä alle 1500 m:ssä eikä cumulonimbus-pilviä

METAR: UKOO 011130Z 18004MPS 150V210 CAVOK 07/M09 Q1021 R34/090060 NOSIG

Aika: 14:54 (11:54 UTC)

Sääennuste

Tämä raportti tehtiin 49 minuuttia sitten, kello 11.05 UTC
Ennuste voimassa 01. päivästä klo 12 UTC - 02. päivään klo 12 UTC
Tuuli 6 kn etelästä/kaakosta puuskistuen 16 kn:hen
Näkyvyys 10 km tai enemmän
ei pilviä alle 1500 m:ssä eikä cumulonimbus-pilviä
Tulossa
01. päivästä klo 18 UTC - 01. päivään klo 19 UTC
Tuuli 6 kn lännestä

TAF: UKOO 011105Z 0112/0212 16003G08MPS CAVOK TX08/0112Z TN00/0202Z BECMG 0118/0119 27003MPS

Säähavainnot ja -ennusteet yli 4000 lentoasemalta (METAR- ja TAF-raportit).

Käytössä olevat sääasemat on merkitty karttaan keltaisilla ja punaisilla pisteillä.

Aseta hiiri pisteen päälle nähdäksesi sääaseman nimen.

Klikkaa sitten nähdäksesi säähavainnot ja -ennusteet.

Kartan vaihtaminen: klikkaa mustalla rastilla varustettuja vihreitä pisteitä, niin voit zoomata sisään; viivalla varustettua vihreää pistettä, niin voit zoomata ulos tai vihreitä nuolia, niin pääset viereisille kartoille.


METAR-TAF: